Time;durP1;ratioP1;P1;durP2;ratioP2;P2;SDS_P1;SDS_P2;PMS_P1;PMS_P2;Temp;Humidity;BMP_temperature;BMP_pressure;BME280_temperature;BME280_humidity;BME280_pressure;Samples;Min_cycle;Max_cycle;Signal;HPM_P1;HPM_P2
2022/06/27 00:01:22;;;;;;;2.67;1.90;;;;;;;;;;4978213;28;20042;-84
2022/06/27 00:03:47;;;;;;;4.60;1.90;;;;;;;;;;4979867;28;20057;-84
2022/06/27 00:06:13;;;;;;;2.00;1.70;;;;;;;;;;4977996;28;20026;-84
2022/06/27 00:08:39;;;;;;;2.80;1.92;;;;;;;;;;4996290;28;20022;-84
2022/06/27 00:11:05;;;;;;;5.68;1.83;;;;;;;;;;4995622;28;20034;-84
2022/06/27 00:13:30;;;;;;;3.22;2.05;;;;;;;;;;4962564;28;20097;-84
2022/06/27 00:15:56;;;;;;;2.80;1.80;;;;;;;;;;4978288;28;20042;-85
2022/06/27 00:18:21;;;;;;;2.20;1.90;;;;;;;;;;4978025;28;20030;-84
2022/06/27 00:20:46;;;;;;;2.17;1.80;;;;;;;;;;4978279;28;20040;-84
2022/06/27 00:23:12;;;;;;;2.47;1.70;;;;;;;;;;4977781;28;20479;-84
2022/06/27 00:25:37;;;;;;;5.18;1.73;;;;;;;;;;4995261;28;20451;-82
2022/06/27 00:28:03;;;;;;;3.30;1.85;;;;;;;;;;4995252;28;20089;-84
2022/06/27 00:30:29;;;;;;;2.95;2.15;;;;;;;;;;4995192;28;20030;-84
2022/06/27 00:32:54;;;;;;;5.22;2.00;;;;;;;;;;4976552;28;20054;-84
2022/06/27 00:35:19;;;;;;;2.22;2.00;;;;;;;;;;4977837;28;20541;-84
2022/06/27 00:37:45;;;;;;;2.90;1.90;;;;;;;;;;4961389;28;20022;-83
2022/06/27 00:40:10;;;;;;;2.85;1.92;;;;;;;;;;4961060;28;20462;-83
2022/06/27 00:42:36;;;;;;;2.22;1.77;;;;;;;;;;4994825;28;20034;-84
2022/06/27 00:45:02;;;;;;;2.08;1.83;;;;;;;;;;4977411;28;20038;-84
2022/06/27 00:47:28;;;;;;;3.10;1.73;;;;;;;;;;4977336;28;20394;-84
2022/06/27 00:49:53;;;;;;;4.40;2.15;;;;;;;;;;4996011;28;20026;-84
2022/06/27 00:52:19;;;;;;;3.55;2.30;;;;;;;;;;4961879;28;20042;-84
2022/06/27 00:54:46;;;;;;;2.22;1.92;;;;;;;;;;4977174;28;20022;-83
2022/06/27 00:57:12;;;;;;;4.38;2.00;;;;;;;;;;4978275;28;20026;-84
2022/06/27 00:59:38;;;;;;;4.55;2.10;;;;;;;;;;4977083;28;20068;-84
2022/06/27 01:02:04;;;;;;;1.85;1.60;;;;;;;;;;4961392;28;20038;-84
2022/06/27 01:04:37;;;;;;;2.00;1.70;;;;;;;;;;5071641;28;20923;-85
2022/06/27 01:07:06;;;;;;;3.15;2.05;;;;;;;;;;5069131;28;20094;-85
2022/06/27 01:09:31;;;;;;;2.22;1.77;;;;;;;;;;5070666;28;20475;-85
2022/06/27 01:11:57;;;;;;;3.33;1.92;;;;;;;;;;5070331;28;20037;-85
2022/06/27 01:14:22;;;;;;;3.13;1.88;;;;;;;;;;5069497;28;20387;-85
2022/06/27 01:16:48;;;;;;;7.10;2.13;;;;;;;;;;5052238;28;20036;-84
2022/06/27 01:19:15;;;;;;;2.03;1.77;;;;;;;;;;5070342;28;20064;-85
2022/06/27 01:21:52;;;;;;;3.30;1.98;;;;;;;;;;5069251;28;20029;-85
2022/06/27 01:24:19;;;;;;;5.35;2.17;;;;;;;;;;5070950;28;20042;-85
2022/06/27 01:26:45;;;;;;;3.05;2.10;;;;;;;;;;5068904;28;20085;-85
2022/06/27 01:29:11;;;;;;;4.28;1.90;;;;;;;;;;5068998;28;20025;-85
2022/06/27 01:31:37;;;;;;;3.50;2.03;;;;;;;;;;5069033;28;20029;-85
2022/06/27 01:34:03;;;;;;;4.03;1.88;;;;;;;;;;5069205;28;20036;-85
2022/06/27 01:36:44;;;;;;;2.97;1.92;;;;;;;;;;5068967;28;20499;-85
2022/06/27 01:39:14;;;;;;;2.00;1.83;;;;;;;;;;5068733;28;20104;-85
2022/06/27 01:41:45;;;;;;;2.88;2.22;;;;;;;;;;5069012;28;20041;-85
2022/06/27 01:44:12;;;;;;;2.38;2.03;;;;;;;;;;5068716;28;20025;-85
2022/06/27 01:46:52;;;;;;;2.67;2.10;;;;;;;;;;5068893;28;20025;-86
2022/06/27 01:49:18;;;;;;;4.28;2.13;;;;;;;;;;5068743;28;20017;-86
2022/06/27 01:51:45;;;;;;;2.75;1.85;;;;;;;;;;5068536;28;20027;-85
2022/06/27 01:54:12;;;;;;;2.38;1.80;;;;;;;;;;5068580;28;20048;-86
2022/06/27 01:56:39;;;;;;;4.25;2.03;;;;;;;;;;5068230;28;20025;-86
2022/06/27 01:59:04;;;;;;;5.53;2.13;;;;;;;;;;5069480;28;20025;-85
2022/06/27 02:01:30;;;;;;;4.93;2.50;;;;;;;;;;5069290;28;20107;-85
2022/06/27 02:03:57;;;;;;;2.28;1.77;;;;;;;;;;5068996;28;20057;-85
2022/06/27 02:06:23;;;;;;;3.42;2.28;;;;;;;;;;5051669;28;20016;-84
2022/06/27 02:08:50;;;;;;;2.85;2.03;;;;;;;;;;5069803;28;20074;-85
2022/06/27 02:11:16;;;;;;;2.50;2.28;;;;;;;;;;5051365;28;20552;-85
2022/06/27 02:13:42;;;;;;;2.28;2.00;;;;;;;;;;5067907;28;20033;-85
2022/06/27 02:16:16;;;;;;;2.83;2.47;;;;;;;;;;5054167;28;20475;-85
2022/06/27 02:18:42;;;;;;;4.15;2.40;;;;;;;;;;5037931;28;20529;-85
2022/06/27 02:21:11;;;;;;;2.72;2.20;;;;;;;;;;5022183;28;20437;-84
2022/06/27 02:23:36;;;;;;;3.78;2.17;;;;;;;;;;5055751;28;20021;-84
2022/06/27 02:26:02;;;;;;;4.60;2.17;;;;;;;;;;5054576;28;20032;-85
2022/06/27 02:28:29;;;;;;;2.40;2.00;;;;;;;;;;5054464;28;20361;-85
2022/06/27 02:30:55;;;;;;;2.25;1.95;;;;;;;;;;5055237;28;20056;-84
2022/06/27 02:33:20;;;;;;;3.30;2.17;;;;;;;;;;5054560;28;20083;-84
2022/06/27 02:35:46;;;;;;;3.70;2.05;;;;;;;;;;5039074;28;20104;-84
2022/06/27 02:38:12;;;;;;;3.13;2.13;;;;;;;;;;5021309;28;20032;-85
2022/06/27 02:40:41;;;;;;;3.08;1.98;;;;;;;;;;5054243;28;20025;-84
2022/06/27 02:43:08;;;;;;;2.95;1.85;;;;;;;;;;5053975;28;20446;-84
2022/06/27 02:45:38;;;;;;;3.50;2.17;;;;;;;;;;5054061;28;20364;-84
2022/06/27 02:48:04;;;;;;;1.90;1.60;;;;;;;;;;5037431;28;20029;-85
2022/06/27 02:50:32;;;;;;;2.35;2.15;;;;;;;;;;5054655;28;20035;-85
2022/06/27 02:53:00;;;;;;;3.00;2.17;;;;;;;;;;5054221;28;20357;-85
2022/06/27 02:55:27;;;;;;;2.70;2.13;;;;;;;;;;5037333;28;20145;-85
2022/06/27 02:58:03;;;;;;;3.13;2.17;;;;;;;;;;5037968;28;20025;-85
2022/06/27 03:00:30;;;;;;;4.13;2.20;;;;;;;;;;5053748;28;20044;-84
2022/06/27 03:02:56;;;;;;;2.70;2.35;;;;;;;;;;5037083;28;20045;-85
2022/06/27 03:05:22;;;;;;;2.65;2.13;;;;;;;;;;5053760;28;20032;-85
2022/06/27 03:07:48;;;;;;;3.58;2.20;;;;;;;;;;5055914;28;20025;-85
2022/06/27 03:10:14;;;;;;;3.65;2.50;;;;;;;;;;5054857;28;20424;-84
2022/06/27 03:12:40;;;;;;;3.92;2.00;;;;;;;;;;5053603;28;20017;-84
2022/06/27 03:15:06;;;;;;;3.42;2.17;;;;;;;;;;5055097;28;20025;-84
2022/06/27 03:17:31;;;;;;;3.08;2.30;;;;;;;;;;5053598;28;20120;-85
2022/06/27 03:19:57;;;;;;;2.30;2.10;;;;;;;;;;5055014;28;20079;-85
2022/06/27 03:22:25;;;;;;;2.25;1.90;;;;;;;;;;5036576;28;20349;-85
2022/06/27 03:24:50;;;;;;;2.90;2.10;;;;;;;;;;5055374;28;20056;-84
2022/06/27 03:27:15;;;;;;;5.35;2.22;;;;;;;;;;5052669;28;20491;-85
2022/06/27 03:29:41;;;;;;;2.28;2.10;;;;;;;;;;5054805;28;20025;-84
2022/06/27 03:32:07;;;;;;;3.25;2.20;;;;;;;;;;5053304;28;20021;-85
2022/06/27 03:34:32;;;;;;;4.07;2.25;;;;;;;;;;5036602;28;20136;-85
2022/06/27 03:36:58;;;;;;;3.78;2.10;;;;;;;;;;5054352;28;20028;-86
2022/06/27 03:39:24;;;;;;;2.00;1.80;;;;;;;;;;5054277;28;20056;-86
2022/06/27 03:41:50;;;;;;;4.18;2.22;;;;;;;;;;5053163;28;20132;-85
2022/06/27 03:44:16;;;;;;;2.60;2.20;;;;;;;;;;5053029;28;20160;-85
2022/06/27 03:46:41;;;;;;;2.85;2.22;;;;;;;;;;5055042;28;20057;-85
2022/06/27 03:51:52;;;;;;;3.60;2.25;;;;;;;;;;5054455;28;20074;-85
2022/06/27 03:54:17;;;;;;;3.20;1.92;;;;;;;;;;5054036;28;20033;-85
2022/06/27 03:56:43;;;;;;;2.13;1.92;;;;;;;;;;5052818;28;20044;-85
2022/06/27 03:59:08;;;;;;;6.30;2.40;;;;;;;;;;5052603;28;20037;-83
2022/06/27 04:01:34;;;;;;;2.67;2.17;;;;;;;;;;5053025;28;20052;-85
2022/06/27 04:04:00;;;;;;;2.47;2.10;;;;;;;;;;5053644;28;20048;-88
2022/06/27 04:06:25;;;;;;;3.70;2.30;;;;;;;;;;5035990;28;20037;-88
2022/06/27 04:08:51;;;;;;;3.55;2.10;;;;;;;;;;5036633;28;20037;-86
2022/06/27 04:11:16;;;;;;;4.63;2.20;;;;;;;;;;5054109;28;20029;-87
2022/06/27 04:13:42;;;;;;;6.30;2.70;;;;;;;;;;5052909;28;20079;-88
2022/06/27 04:16:07;;;;;;;4.55;2.70;;;;;;;;;;5036033;28;20029;-87
2022/06/27 04:18:33;;;;;;;3.97;2.13;;;;;;;;;;5036140;28;20021;-88
2022/06/27 04:20:59;;;;;;;3.03;2.40;;;;;;;;;;5052353;28;20033;-87
2022/06/27 04:23:24;;;;;;;10.50;2.47;;;;;;;;;;5035633;28;20399;-87
2022/06/27 04:25:49;;;;;;;4.15;2.60;;;;;;;;;;5053151;28;20037;-88
2022/06/27 04:28:15;;;;;;;2.55;1.90;;;;;;;;;;5035632;28;20033;-87
2022/06/27 04:30:40;;;;;;;5.00;2.13;;;;;;;;;;5053565;28;20178;-87
2022/06/27 04:33:09;;;;;;;7.32;2.50;;;;;;;;;;5054650;28;20103;-88
2022/06/27 04:35:34;;;;;;;4.10;2.35;;;;;;;;;;5037649;28;20521;-89
2022/06/27 04:38:00;;;;;;;5.25;2.00;;;;;;;;;;5035758;28;20025;-89
2022/06/27 04:40:26;;;;;;;7.40;2.05;;;;;;;;;;5053083;28;20029;-88
2022/06/27 04:42:53;;;;;;;4.00;1.85;;;;;;;;;;5053777;28;20468;-88
2022/06/27 04:45:18;;;;;;;3.35;1.65;;;;;;;;;;5019952;28;20029;-86
2022/06/27 04:47:45;;;;;;;5.20;1.70;;;;;;;;;;5053201;28;20035;-87
2022/06/27 04:50:14;;;;;;;5.82;1.60;;;;;;;;;;5035694;28;20028;-88
2022/06/27 04:52:40;;;;;;;2.67;1.92;;;;;;;;;;5053437;28;20025;-84
2022/06/27 04:55:08;;;;;;;7.00;2.03;;;;;;;;;;5053668;28;20029;-86
2022/06/27 04:57:34;;;;;;;7.25;2.00;;;;;;;;;;5058414;28;20031;-86
2022/06/27 05:00:01;;;;;;;5.85;2.22;;;;;;;;;;5053770;28;20032;-88
2022/06/27 05:02:27;;;;;;;5.70;2.15;;;;;;;;;;5051907;28;20098;-87
2022/06/27 05:04:52;;;;;;;3.85;2.17;;;;;;;;;;5052040;28;20484;-87
2022/06/27 05:07:18;;;;;;;7.20;2.40;;;;;;;;;;5053647;28;20033;-88
2022/06/27 05:09:45;;;;;;;3.75;2.33;;;;;;;;;;5035680;28;20410;-87
2022/06/27 05:12:11;;;;;;;3.75;2.58;;;;;;;;;;5051902;28;20033;-84
2022/06/27 05:14:36;;;;;;;3.53;2.30;;;;;;;;;;5036459;28;20035;-88
2022/06/27 05:17:01;;;;;;;5.97;3.15;;;;;;;;;;5036452;28;20029;-87
2022/06/27 05:19:27;;;;;;;6.60;3.00;;;;;;;;;;5053642;28;20569;-88
2022/06/27 05:21:52;;;;;;;7.20;2.83;;;;;;;;;;5052395;28;20115;-88
2022/06/27 05:24:18;;;;;;;4.25;2.75;;;;;;;;;;5052499;28;20033;-87
2022/06/27 05:26:46;;;;;;;4.88;3.10;;;;;;;;;;5035361;28;20097;-87
2022/06/27 05:29:12;;;;;;;4.70;2.67;;;;;;;;;;5053707;28;20108;-87
2022/06/27 05:31:37;;;;;;;5.35;3.10;;;;;;;;;;5036556;28;20048;-88
2022/06/27 05:34:02;;;;;;;7.30;2.70;;;;;;;;;;5052092;28;20438;-87
2022/06/27 05:36:28;;;;;;;5.15;2.78;;;;;;;;;;5038207;28;20387;-86
2022/06/27 05:38:55;;;;;;;6.75;2.70;;;;;;;;;;5053325;28;20082;-87
2022/06/27 05:41:21;;;;;;;3.47;2.50;;;;;;;;;;5054095;28;20028;-87
2022/06/27 05:43:46;;;;;;;4.60;2.80;;;;;;;;;;5054414;28;20021;-87
2022/06/27 05:46:12;;;;;;;4.47;3.00;;;;;;;;;;5053875;28;20040;-87
2022/06/27 05:48:37;;;;;;;5.57;2.85;;;;;;;;;;5053371;28;20104;-87
2022/06/27 05:51:03;;;;;;;5.78;3.10;;;;;;;;;;5056227;28;20036;-87
2022/06/27 05:53:30;;;;;;;11.13;3.03;;;;;;;;;;5056114;28;20479;-87
2022/06/27 05:55:55;;;;;;;9.70;3.40;;;;;;;;;;5057230;28;20029;-87
2022/06/27 05:58:21;;;;;;;10.85;3.10;;;;;;;;;;5039191;28;20115;-86
2022/06/27 06:00:46;;;;;;;6.63;3.03;;;;;;;;;;5056755;28;20029;-86
2022/06/27 06:03:12;;;;;;;4.30;2.65;;;;;;;;;;5056362;28;20052;-87
2022/06/27 06:05:37;;;;;;;5.75;3.20;;;;;;;;;;5055190;28;20025;-86
2022/06/27 06:08:04;;;;;;;7.63;2.97;;;;;;;;;;5055993;28;20029;-86
2022/06/27 06:10:32;;;;;;;6.82;2.97;;;;;;;;;;5038654;28;20116;-87
2022/06/27 06:12:58;;;;;;;6.13;2.60;;;;;;;;;;5056673;28;20017;-87
2022/06/27 06:15:23;;;;;;;4.63;2.40;;;;;;;;;;5056417;28;20111;-87
2022/06/27 06:17:49;;;;;;;3.90;2.10;;;;;;;;;;5056763;28;20036;-87
2022/06/27 06:20:15;;;;;;;2.72;2.05;;;;;;;;;;5058038;28;20049;-88
2022/06/27 06:22:41;;;;;;;4.63;1.92;;;;;;;;;;5055411;28;20068;-88
2022/06/27 06:25:07;;;;;;;3.35;2.17;;;;;;;;;;5058347;28;20100;-88
2022/06/27 06:27:33;;;;;;;3.65;2.58;;;;;;;;;;5056666;28;20044;-87
2022/06/27 06:30:02;;;;;;;5.78;2.60;;;;;;;;;;5056067;28;20033;-88
2022/06/27 06:32:28;;;;;;;6.57;2.90;;;;;;;;;;5039867;28;20119;-86
2022/06/27 06:34:54;;;;;;;7.60;3.58;;;;;;;;;;5056445;28;20032;-87
2022/06/27 06:37:19;;;;;;;6.60;3.00;;;;;;;;;;5056765;28;20028;-85
2022/06/27 06:39:44;;;;;;;6.93;3.30;;;;;;;;;;5056167;28;20029;-86
2022/06/27 06:42:11;;;;;;;5.15;3.17;;;;;;;;;;5039478;28;20029;-86
2022/06/27 06:44:36;;;;;;;5.20;3.22;;;;;;;;;;5055193;28;20037;-87
2022/06/27 06:47:02;;;;;;;6.63;3.30;;;;;;;;;;5055855;28;20033;-85
2022/06/27 06:49:28;;;;;;;3.88;2.88;;;;;;;;;;5056027;28;20033;-87
2022/06/27 06:51:53;;;;;;;5.45;3.20;;;;;;;;;;5057316;28;20485;-90
2022/06/27 06:54:20;;;;;;;4.68;2.95;;;;;;;;;;5037905;28;20029;-86
2022/06/27 06:56:49;;;;;;;10.55;3.35;;;;;;;;;;5038323;28;20499;-86
2022/06/27 06:59:16;;;;;;;4.28;2.97;;;;;;;;;;5055803;28;20029;-88
2022/06/27 07:01:43;;;;;;;5.13;3.20;;;;;;;;;;5021423;28;20029;-87
2022/06/27 07:04:08;;;;;;;6.90;3.25;;;;;;;;;;5055937;28;20075;-91
2022/06/27 07:06:34;;;;;;;6.28;3.78;;;;;;;;;;5038085;28;20563;-86
2022/06/27 07:09:00;;;;;;;9.93;4.05;;;;;;;;;;5057483;28;20119;-86
2022/06/27 07:11:28;;;;;;;11.73;4.07;;;;;;;;;;5037554;28;20097;-86
2022/06/27 07:13:55;;;;;;;6.95;3.80;;;;;;;;;;5055351;28;20025;-85
2022/06/27 07:16:21;;;;;;;8.80;4.22;;;;;;;;;;5055395;28;20052;-83
2022/06/27 07:18:47;;;;;;;5.53;3.67;;;;;;;;;;5054017;28;20036;-83
2022/06/27 07:21:18;;;;;;;9.05;4.13;;;;;;;;;;5053525;28;20115;-83
2022/06/27 07:23:46;;;;;;;6.30;4.10;;;;;;;;;;5037104;28;20032;-83
2022/06/27 07:26:12;;;;;;;8.32;3.90;;;;;;;;;;5054115;28;20036;-83
2022/06/27 07:28:38;;;;;;;9.57;3.30;;;;;;;;;;5053818;28;20536;-83
2022/06/27 07:31:08;;;;;;;6.63;3.47;;;;;;;;;;5037185;28;20024;-83
2022/06/27 07:33:37;;;;;;;6.30;3.72;;;;;;;;;;5038239;28;20104;-83
2022/06/27 07:36:04;;;;;;;8.90;3.70;;;;;;;;;;5058129;28;20033;-82
2022/06/27 07:38:32;;;;;;;7.72;3.15;;;;;;;;;;5036602;28;20380;-83
2022/06/27 07:40:58;;;;;;;6.25;3.33;;;;;;;;;;5053370;28;20029;-84
2022/06/27 07:43:23;;;;;;;6.28;3.17;;;;;;;;;;5053194;28;20071;-83
2022/06/27 07:45:49;;;;;;;4.18;3.05;;;;;;;;;;5055103;28;20467;-83
2022/06/27 07:48:17;;;;;;;4.97;2.47;;;;;;;;;;5053355;28;20052;-83
2022/06/27 07:50:43;;;;;;;6.88;2.38;;;;;;;;;;5036908;28;20475;-83
2022/06/27 07:53:14;;;;;;;5.00;2.80;;;;;;;;;;5054081;28;20036;-83
2022/06/27 07:55:45;;;;;;;6.63;3.15;;;;;;;;;;5053258;28;20036;-83
2022/06/27 07:58:14;;;;;;;3.55;2.40;;;;;;;;;;5053871;28;20071;-83
2022/06/27 08:00:41;;;;;;;6.28;3.13;;;;;;;;;;5054511;28;20085;-84
2022/06/27 08:03:36;;;;;;;4.20;3.35;;;;;;;;;;5019841;28;20122;-84
2022/06/27 08:05:53;;;;;;;4.68;2.45;;;;;;;;;;5053935;28;20123;-84
2022/06/27 08:08:21;;;;;;;4.68;2.10;;;;;;;;;;5054402;28;20032;-84
2022/06/27 08:10:46;;;;;;;5.53;2.45;;;;;;;;;;5036388;28;20116;-84
2022/06/27 08:13:12;;;;;;;3.05;2.08;;;;;;;;;;5052277;28;20506;-84
2022/06/27 08:15:38;;;;;;;3.80;2.58;;;;;;;;;;5036225;28;20025;-83
2022/06/27 08:18:04;;;;;;;5.78;2.30;;;;;;;;;;5052852;28;20033;-84
2022/06/27 08:20:30;;;;;;;2.97;1.95;;;;;;;;;;5054395;28;20036;-83
2022/06/27 08:22:56;;;;;;;3.42;2.08;;;;;;;;;;5036043;28;20391;-84
2022/06/27 08:25:21;;;;;;;4.28;2.17;;;;;;;;;;5052748;28;20032;-84
2022/06/27 08:27:48;;;;;;;5.72;2.00;;;;;;;;;;5052529;28;20545;-84
2022/06/27 08:30:15;;;;;;;7.03;3.00;;;;;;;;;;5036401;28;20071;-84
2022/06/27 08:32:41;;;;;;;3.92;1.90;;;;;;;;;;5052598;28;20032;-83
2022/06/27 08:35:08;;;;;;;6.97;3.60;;;;;;;;;;5035910;28;20029;-83
2022/06/27 08:37:33;;;;;;;5.00;2.35;;;;;;;;;;5019587;28;20055;-84
2022/06/27 08:39:59;;;;;;;2.63;2.28;;;;;;;;;;5052785;28;20467;-84
2022/06/27 08:42:24;;;;;;;4.28;3.10;;;;;;;;;;5052949;28;20025;-84
2022/06/27 08:44:50;;;;;;;5.63;3.33;;;;;;;;;;5052349;28;20559;-84
2022/06/27 08:47:16;;;;;;;4.38;3.03;;;;;;;;;;5052248;28;20549;-84
2022/06/27 08:49:43;;;;;;;4.80;2.38;;;;;;;;;;5053437;28;20112;-84
2022/06/27 08:52:09;;;;;;;4.93;2.28;;;;;;;;;;5036652;28;20130;-84
2022/06/27 08:54:35;;;;;;;6.40;2.72;;;;;;;;;;5054507;28;20029;-84
2022/06/27 08:57:02;;;;;;;4.25;2.70;;;;;;;;;;5019277;28;20112;-84
2022/06/27 08:59:28;;;;;;;3.45;2.80;;;;;;;;;;5053403;28;20032;-84
2022/06/27 09:01:53;;;;;;;5.10;2.97;;;;;;;;;;5052508;28;20023;-85
2022/06/27 09:04:20;;;;;;;5.38;2.90;;;;;;;;;;5035137;28;20466;-84
2022/06/27 09:06:45;;;;;;;6.00;3.00;;;;;;;;;;5052177;28;20029;-84
2022/06/27 09:09:14;;;;;;;5.65;3.13;;;;;;;;;;5052411;28;20073;-85
2022/06/27 09:11:41;;;;;;;6.32;2.90;;;;;;;;;;5052357;28;20032;-84
2022/06/27 09:14:31;;;;;;;6.60;2.90;;;;;;;;;;5053853;28;20468;-84
2022/06/27 09:16:58;;;;;;;5.85;2.88;;;;;;;;;;5052117;28;20028;-84
2022/06/27 09:19:44;;;;;;;5.32;2.55;;;;;;;;;;5051745;28;20032;-83
2022/06/27 09:22:12;;;;;;;5.93;3.03;;;;;;;;;;5035216;28;20068;-83
2022/06/27 09:25:00;;;;;;;5.90;3.00;;;;;;;;;;5036576;28;20028;-84
2022/06/27 09:27:39;;;;;;;5.70;2.50;;;;;;;;;;5039297;28;20446;-84
2022/06/27 09:30:20;;;;;;;4.95;2.20;;;;;;;;;;5040033;28;20021;-83
2022/06/27 09:32:46;;;;;;;6.38;2.55;;;;;;;;;;5057477;28;20029;-83
2022/06/27 09:35:23;;;;;;;3.25;2.28;;;;;;;;;;5040032;28;20039;-84
2022/06/27 09:37:59;;;;;;;3.20;2.00;;;;;;;;;;5057316;28;20028;-84
2022/06/27 09:40:26;;;;;;;3.83;2.10;;;;;;;;;;5039092;28;20035;-84
2022/06/27 09:42:54;;;;;;;1.90;1.58;;;;;;;;;;5056309;28;20070;-84
2022/06/27 09:45:23;;;;;;;2.97;1.50;;;;;;;;;;5039095;28;20033;-84
2022/06/27 09:47:49;;;;;;;6.43;1.77;;;;;;;;;;5039032;28;20025;-84
2022/06/27 09:50:15;;;;;;;3.92;1.77;;;;;;;;;;5056365;28;20379;-85
2022/06/27 09:52:41;;;;;;;3.20;1.70;;;;;;;;;;5056208;28;20029;-84
2022/06/27 09:55:08;;;;;;;6.45;2.00;;;;;;;;;;5056600;28;20430;-84
2022/06/27 09:57:35;;;;;;;10.60;2.08;;;;;;;;;;5038930;28;20529;-84
2022/06/27 10:00:01;;;;;;;7.78;2.40;;;;;;;;;;5056751;28;20033;-84
2022/06/27 10:02:28;;;;;;;5.90;2.40;;;;;;;;;;5055222;28;20349;-85
2022/06/27 10:04:53;;;;;;;5.07;2.30;;;;;;;;;;5056465;28;20037;-84
2022/06/27 10:07:21;;;;;;;8.57;2.08;;;;;;;;;;5056438;28;20082;-84
2022/06/27 10:09:51;;;;;;;5.13;2.35;;;;;;;;;;5055646;28;20029;-84
2022/06/27 10:12:23;;;;;;;4.40;2.30;;;;;;;;;;5057471;28;20025;-84
2022/06/27 10:15:14;;;;;;;5.60;2.42;;;;;;;;;;5055195;28;20025;-84
2022/06/27 10:17:46;;;;;;;5.30;2.25;;;;;;;;;;5051883;28;20143;-84
2022/06/27 10:20:20;;;;;;;5.57;2.40;;;;;;;;;;5056547;28;20480;-84
2022/06/27 10:23:04;;;;;;;4.45;2.13;;;;;;;;;;5039019;28;20036;-84
2022/06/27 10:25:29;;;;;;;3.83;2.03;;;;;;;;;;5056317;28;20052;-84
2022/06/27 10:28:07;;;;;;;4.30;2.30;;;;;;;;;;5056314;28;20033;-85
2022/06/27 10:30:42;;;;;;;6.22;2.38;;;;;;;;;;5056286;28;20083;-85
2022/06/27 10:33:23;;;;;;;4.97;2.25;;;;;;;;;;5038330;28;20380;-84
2022/06/27 10:35:55;;;;;;;6.03;2.42;;;;;;;;;;5055570;28;20025;-82
2022/06/27 10:38:27;;;;;;;5.25;2.92;;;;;;;;;;5056715;28;20096;-83
2022/06/27 10:40:54;;;;;;;4.47;2.53;;;;;;;;;;5059664;28;20017;-84
2022/06/27 10:43:40;;;;;;;6.15;2.60;;;;;;;;;;5054821;28;20032;-84
2022/06/27 10:46:09;;;;;;;6.95;2.55;;;;;;;;;;5055780;28;20025;-85
2022/06/27 10:48:36;;;;;;;4.72;2.95;;;;;;;;;;5053301;28;20479;-83
2022/06/27 10:51:26;;;;;;;7.00;3.10;;;;;;;;;;5053778;28;20444;-84
2022/06/27 10:54:04;;;;;;;5.82;2.50;;;;;;;;;;5053540;28;20021;-83
2022/06/27 10:56:29;;;;;;;7.15;2.90;;;;;;;;;;5053867;28;20041;-84
2022/06/27 10:58:59;;;;;;;4.55;2.70;;;;;;;;;;5054795;28;20364;-83
2022/06/27 11:01:25;;;;;;;5.53;1.90;;;;;;;;;;5053430;28;20086;-84
2022/06/27 11:03:51;;;;;;;2.80;1.80;;;;;;;;;;5052764;28;20049;-85
2022/06/27 11:06:17;;;;;;;3.03;1.80;;;;;;;;;;5053261;28;20407;-85
2022/06/27 11:08:46;;;;;;;6.72;2.00;;;;;;;;;;5036732;28;20033;-84
2022/06/27 11:11:22;;;;;;;3.42;2.22;;;;;;;;;;5053232;28;20031;-84
2022/06/27 11:13:48;;;;;;;4.88;2.22;;;;;;;;;;5053698;28;20113;-84
2022/06/27 11:16:18;;;;;;;7.13;2.60;;;;;;;;;;5053616;28;20107;-83
2022/06/27 11:18:52;;;;;;;5.80;2.63;;;;;;;;;;5053245;28;20029;-84
2022/06/27 11:21:19;;;;;;;5.72;2.58;;;;;;;;;;5053510;28;20078;-84
2022/06/27 11:23:56;;;;;;;6.57;2.53;;;;;;;;;;5053210;28;20024;-85
2022/06/27 11:26:25;;;;;;;7.28;3.17;;;;;;;;;;5020872;28;20119;-85
2022/06/27 11:34:18;;;;;;;;;;;;;;;;;;5039776;28;20083;-86
2022/06/27 11:36:45;;;;;;;4.80;2.88;;;;;;;;;;5052974;28;19916;-84
2022/06/27 11:39:11;;;;;;;8.23;2.97;;;;;;;;;;5052798;28;20529;-84
2022/06/27 11:41:40;;;;;;;11.25;2.90;;;;;;;;;;5052911;28;20399;-81
2022/06/27 11:44:11;;;;;;;7.15;2.55;;;;;;;;;;5052655;28;20033;-85
2022/06/27 11:46:45;;;;;;;3.95;2.70;;;;;;;;;;5052442;28;20052;-85
2022/06/27 11:49:30;;;;;;;7.97;2.67;;;;;;;;;;5052124;28;20032;-85
2022/06/27 11:52:16;;;;;;;5.13;2.40;;;;;;;;;;5052908;28;20078;-85
2022/06/27 11:54:45;;;;;;;6.72;2.70;;;;;;;;;;5053812;28;20037;-85
2022/06/27 11:57:33;;;;;;;5.13;2.20;;;;;;;;;;5052759;28;20063;-85
2022/06/27 12:00:00;;;;;;;6.75;2.75;;;;;;;;;;5052544;28;20087;-85
2022/06/27 12:02:31;;;;;;;5.00;2.33;;;;;;;;;;5052099;28;20383;-85
2022/06/27 12:05:08;;;;;;;6.07;2.50;;;;;;;;;;5052207;28;20424;-85
2022/06/27 12:07:53;;;;;;;3.38;2.25;;;;;;;;;;5053394;28;20390;-85
2022/06/27 12:10:35;;;;;;;2.95;2.15;;;;;;;;;;5052274;28;20021;-85
2022/06/27 12:13:01;;;;;;;5.18;3.03;;;;;;;;;;5053447;28;20503;-84
2022/06/27 12:15:26;;;;;;;5.70;2.88;;;;;;;;;;5052580;28;20055;-84
2022/06/27 12:18:00;;;;;;;5.68;2.90;;;;;;;;;;5035474;28;20029;-85
2022/06/27 12:20:26;;;;;;;5.25;3.00;;;;;;;;;;5053964;28;20033;-86
2022/06/27 12:22:52;;;;;;;4.53;2.67;;;;;;;;;;5052792;28;20039;-87
2022/06/27 12:25:18;;;;;;;5.63;2.75;;;;;;;;;;5054561;28;20029;-85
2022/06/27 12:27:44;;;;;;;8.00;3.05;;;;;;;;;;5052797;28;20020;-87
2022/06/27 12:30:11;;;;;;;4.68;3.10;;;;;;;;;;5054891;28;20476;-84
2022/06/27 12:32:36;;;;;;;5.78;2.78;;;;;;;;;;5053462;28;20037;-83
2022/06/27 12:35:03;;;;;;;5.78;2.80;;;;;;;;;;5053490;28;20025;-85
2022/06/27 12:37:28;;;;;;;4.28;2.53;;;;;;;;;;5054537;28;20033;-84
2022/06/27 12:39:54;;;;;;;5.63;2.65;;;;;;;;;;5037950;28;20120;-84
2022/06/27 12:42:19;;;;;;;6.32;2.85;;;;;;;;;;5055634;28;20028;-84
2022/06/27 12:44:45;;;;;;;3.75;2.22;;;;;;;;;;5052069;28;20369;-84
2022/06/27 12:47:10;;;;;;;2.60;1.98;;;;;;;;;;5057829;28;20089;-85
2022/06/27 12:49:36;;;;;;;2.45;1.70;;;;;;;;;;5053425;28;20032;-85
2022/06/27 12:52:02;;;;;;;5.13;1.92;;;;;;;;;;5053715;28;20079;-84
2022/06/27 12:54:27;;;;;;;3.15;2.30;;;;;;;;;;5053580;28;20345;-85
2022/06/27 12:56:52;;;;;;;3.08;1.70;;;;;;;;;;5044390;28;20498;-84
2022/06/27 12:59:18;;;;;;;4.63;2.42;;;;;;;;;;5053022;28;20021;-85
2022/06/27 13:01:43;;;;;;;2.28;1.77;;;;;;;;;;5051546;28;20086;-85
2022/06/27 13:04:09;;;;;;;2.35;1.83;;;;;;;;;;5051245;28;20045;-85
2022/06/27 13:06:34;;;;;;;6.35;2.63;;;;;;;;;;5051157;28;20036;-84
2022/06/27 13:09:00;;;;;;;5.20;2.50;;;;;;;;;;5051837;28;20025;-84
2022/06/27 13:11:25;;;;;;;6.63;1.90;;;;;;;;;;5052989;28;20036;-84
2022/06/27 13:13:51;;;;;;;3.15;1.77;;;;;;;;;;5051126;28;20021;-84
2022/06/27 13:16:16;;;;;;;3.67;1.77;;;;;;;;;;5033994;28;20032;-85
2022/06/27 13:18:42;;;;;;;3.80;2.10;;;;;;;;;;5052269;28;20159;-85
2022/06/27 13:21:07;;;;;;;2.13;1.67;;;;;;;;;;5052166;28;20033;-85
2022/06/27 13:23:32;;;;;;;3.97;1.88;;;;;;;;;;5052294;28;20044;-85
2022/06/27 13:25:58;;;;;;;3.08;1.63;;;;;;;;;;5051054;28;20122;-85
2022/06/27 13:28:23;;;;;;;2.63;1.70;;;;;;;;;;5033973;28;20033;-84
2022/06/27 13:30:49;;;;;;;2.60;1.80;;;;;;;;;;5052404;28;20391;-85
2022/06/27 13:33:14;;;;;;;3.78;2.00;;;;;;;;;;5051008;28;20031;-85
2022/06/27 13:35:40;;;;;;;2.00;1.60;;;;;;;;;;5051076;28;20056;-87
2022/06/27 13:38:05;;;;;;;4.82;1.50;;;;;;;;;;5054099;28;20025;-85
2022/06/27 13:40:32;;;;;;;4.82;1.70;;;;;;;;;;5053675;28;20083;-86
2022/06/27 13:42:58;;;;;;;2.08;1.55;;;;;;;;;;5050730;28;20060;-85
2022/06/27 13:45:24;;;;;;;2.00;1.42;;;;;;;;;;5050082;28;20068;-86
2022/06/27 13:47:50;;;;;;;2.47;1.80;;;;;;;;;;5052378;28;20381;-85
2022/06/27 13:50:16;;;;;;;1.95;1.35;;;;;;;;;;5050841;28;20029;-85
2022/06/27 13:52:41;;;;;;;2.65;1.60;;;;;;;;;;5033939;28;20025;-86
2022/06/27 13:55:07;;;;;;;2.97;1.50;;;;;;;;;;5050900;28;20063;-86
2022/06/27 13:57:32;;;;;;;3.72;1.85;;;;;;;;;;5051473;28;20055;-85
2022/06/27 13:59:58;;;;;;;2.90;1.48;;;;;;;;;;5052859;28;20059;-86
2022/06/27 14:02:23;;;;;;;4.50;1.88;;;;;;;;;;5051512;28;20119;-85
2022/06/27 14:04:48;;;;;;;2.38;1.50;;;;;;;;;;5051950;28;20049;-86
2022/06/27 14:09:58;;;;;;;;;;;;;;;;;;5037201;28;20109;-86
2022/06/27 14:12:23;;;;;;;3.95;1.50;;;;;;;;;;5053836;28;20085;-86
2022/06/27 14:14:48;;;;;;;3.85;1.50;;;;;;;;;;5054340;28;20040;-86
2022/06/27 14:17:14;;;;;;;2.58;1.52;;;;;;;;;;5037326;28;20039;-86
2022/06/27 14:19:39;;;;;;;2.55;1.40;;;;;;;;;;5037476;28;20025;-86
2022/06/27 14:22:05;;;;;;;4.38;1.52;;;;;;;;;;5057254;28;20037;-86
2022/06/27 14:24:31;;;;;;;2.88;1.45;;;;;;;;;;5038874;28;20029;-87
2022/06/27 14:26:57;;;;;;;1.85;1.40;;;;;;;;;;5018190;28;20033;-87
2022/06/27 14:29:23;;;;;;;2.13;1.48;;;;;;;;;;5036591;28;20036;-85
2022/06/27 14:31:49;;;;;;;2.65;1.30;;;;;;;;;;5036260;28;20445;-85
2022/06/27 14:34:14;;;;;;;2.35;1.30;;;;;;;;;;5055785;28;20472;-85
2022/06/27 14:36:41;;;;;;;2.95;1.40;;;;;;;;;;5054380;28;20082;-84
2022/06/27 14:39:06;;;;;;;3.75;1.30;;;;;;;;;;5056503;28;20056;-83
2022/06/27 14:41:32;;;;;;;3.42;1.27;;;;;;;;;;5054617;28;20065;-83
2022/06/27 14:43:58;;;;;;;3.65;1.38;;;;;;;;;;5055531;28;20033;-84
2022/06/27 14:46:23;;;;;;;1.98;1.20;;;;;;;;;;5055821;28;20021;-88
2022/06/27 14:48:49;;;;;;;3.05;1.30;;;;;;;;;;5043567;28;20029;-87
2022/06/27 14:51:14;;;;;;;2.65;1.45;;;;;;;;;;5045023;28;20033;-85
2022/06/27 14:53:42;;;;;;;2.75;1.17;;;;;;;;;;5049620;28;20033;-82
2022/06/27 14:56:09;;;;;;;2.42;1.48;;;;;;;;;;5022246;28;20025;-84